Time;durP1;ratioP1;P1;durP2;ratioP2;P2;SDS_P1;SDS_P2;PMS_P1;PMS_P2;Temp;Humidity;BMP_temperature;BMP_pressure;BME280_temperature;BME280_humidity;BME280_pressure;Samples;Min_cycle;Max_cycle;Signal;HPM_P1;HPM_P2
2024/01/07 00:00:11;;;;;;;1.77;1.67;;;;;;;;;;4967382;28;20207;-66
2024/01/07 00:02:38;;;;;;;2.50;2.33;;;;;;;;;;4970601;28;20273;-66
2024/01/07 00:05:05;;;;;;;1.50;1.50;;;;;;;;;;4970991;28;20214;-66
2024/01/07 00:07:33;;;;;;;1.93;1.83;;;;;;;;;;4971486;28;20932;-66
2024/01/07 00:10:00;;;;;;;2.70;2.10;;;;;;;;;;4971023;28;20213;-66
2024/01/07 00:12:27;;;;;;;2.17;1.97;;;;;;;;;;4970669;28;20218;-66
2024/01/07 00:14:54;;;;;;;2.53;2.40;;;;;;;;;;4970868;28;20229;-65
2024/01/07 00:17:21;;;;;;;2.10;2.00;;;;;;;;;;4971300;28;20222;-64
2024/01/07 00:19:48;;;;;;;2.07;1.97;;;;;;;;;;4971064;28;20292;-65
2024/01/07 00:22:15;;;;;;;1.77;1.67;;;;;;;;;;4970649;28;20226;-65
2024/01/07 00:24:44;;;;;;;2.27;2.17;;;;;;;;;;4970926;28;20391;-65
2024/01/07 00:27:11;;;;;;;2.13;2.03;;;;;;;;;;4971093;28;20752;-64
2024/01/07 00:29:38;;;;;;;2.30;2.20;;;;;;;;;;4970832;28;20269;-65
2024/01/07 00:32:05;;;;;;;2.43;2.33;;;;;;;;;;4969834;28;20217;-65
2024/01/07 00:34:32;;;;;;;1.90;1.80;;;;;;;;;;4970662;28;20232;-64
2024/01/07 00:36:59;;;;;;;1.93;1.83;;;;;;;;;;4970803;28;20265;-65
2024/01/07 00:39:26;;;;;;;2.07;1.97;;;;;;;;;;4970942;28;20211;-64
2024/01/07 00:41:54;;;;;;;2.23;2.10;;;;;;;;;;4970168;28;20308;-65
2024/01/07 00:44:21;;;;;;;2.30;2.20;;;;;;;;;;4970302;28;20210;-64
2024/01/07 00:46:48;;;;;;;2.43;2.33;;;;;;;;;;4970891;28;20221;-64
2024/01/07 00:49:16;;;;;;;2.70;2.50;;;;;;;;;;4970729;28;20242;-65
2024/01/07 00:51:43;;;;;;;2.40;2.20;;;;;;;;;;4970359;28;20624;-64
2024/01/07 00:54:10;;;;;;;2.07;1.97;;;;;;;;;;4969906;28;20213;-65
2024/01/07 00:56:37;;;;;;;2.40;2.20;;;;;;;;;;4970322;28;20222;-64
2024/01/07 00:59:06;;;;;;;2.47;2.23;;;;;;;;;;4970374;28;20214;-65
2024/01/07 01:01:33;;;;;;;2.27;2.13;;;;;;;;;;4969972;28;20210;-64
2024/01/07 01:04:00;;;;;;;1.83;1.73;;;;;;;;;;4969908;28;20210;-65
2024/01/07 01:06:27;;;;;;;1.73;1.63;;;;;;;;;;4969778;28;20245;-65
2024/01/07 01:08:54;;;;;;;2.57;2.37;;;;;;;;;;4969955;28;20210;-65
2024/01/07 01:11:21;;;;;;;2.00;1.70;;;;;;;;;;4969040;28;20210;-65
2024/01/07 01:13:48;;;;;;;1.97;1.87;;;;;;;;;;4968797;28;20892;-64
2024/01/07 01:16:16;;;;;;;2.10;2.00;;;;;;;;;;4969859;28;20297;-64
2024/01/07 01:18:43;;;;;;;2.33;2.17;;;;;;;;;;4970180;28;20215;-65
2024/01/07 01:21:12;;;;;;;1.80;1.70;;;;;;;;;;4969999;28;20239;-64
2024/01/07 01:23:39;;;;;;;1.67;1.57;;;;;;;;;;4969098;28;20606;-64
2024/01/07 01:26:06;;;;;;;1.90;1.80;;;;;;;;;;4969642;28;20262;-64
2024/01/07 01:28:33;;;;;;;1.77;1.67;;;;;;;;;;4968309;28;20219;-65
2024/01/07 01:31:00;;;;;;;1.07;1.07;;;;;;;;;;4970012;28;20218;-65
2024/01/07 01:33:28;;;;;;;1.30;1.30;;;;;;;;;;4969052;28;20207;-64
2024/01/07 01:35:55;;;;;;;0.83;0.83;;;;;;;;;;4969665;28;20227;-65
2024/01/07 01:38:22;;;;;;;1.23;1.20;;;;;;;;;;4969858;28;20707;-65
2024/01/07 01:40:52;;;;;;;1.03;1.03;;;;;;;;;;4967780;28;20207;-66
2024/01/07 01:43:23;;;;;;;0.90;0.90;;;;;;;;;;4969522;28;20309;-65
2024/01/07 01:45:51;;;;;;;0.93;0.93;;;;;;;;;;4969625;28;20296;-66
2024/01/07 01:48:18;;;;;;;0.90;0.80;;;;;;;;;;4969777;28;20734;-66
2024/01/07 01:50:47;;;;;;;1.20;1.00;;;;;;;;;;4968132;28;20276;-66
2024/01/07 01:53:14;;;;;;;1.00;1.00;;;;;;;;;;4968863;28;20218;-66
2024/01/07 01:55:41;;;;;;;1.07;1.00;;;;;;;;;;4967488;28;20237;-65
2024/01/07 01:58:10;;;;;;;0.90;0.90;;;;;;;;;;4968762;28;20222;-66
2024/01/07 02:00:37;;;;;;;0.70;0.70;;;;;;;;;;4969339;28;20225;-65
2024/01/07 02:03:04;;;;;;;0.77;0.77;;;;;;;;;;4967077;28;20210;-66
2024/01/07 02:05:31;;;;;;;1.10;0.77;;;;;;;;;;4968637;28;20215;-65
2024/01/07 02:08:00;;;;;;;0.53;0.53;;;;;;;;;;4969147;28;20203;-65
2024/01/07 02:10:28;;;;;;;0.90;0.90;;;;;;;;;;4968963;28;20217;-66
2024/01/07 02:12:56;;;;;;;0.90;0.90;;;;;;;;;;4968911;28;20210;-66
2024/01/07 02:15:23;;;;;;;1.10;1.10;;;;;;;;;;4967778;28;20712;-65
2024/01/07 02:17:50;;;;;;;0.63;0.63;;;;;;;;;;4969158;28;20225;-66
2024/01/07 02:20:17;;;;;;;0.90;0.90;;;;;;;;;;4968937;28;20214;-65
2024/01/07 02:22:44;;;;;;;0.67;0.67;;;;;;;;;;4968424;28;20225;-66
2024/01/07 02:25:12;;;;;;;0.70;0.70;;;;;;;;;;4968708;28;20242;-66
2024/01/07 02:27:39;;;;;;;1.10;1.10;;;;;;;;;;4968665;28;20218;-66
2024/01/07 02:30:07;;;;;;;0.50;0.50;;;;;;;;;;4968413;28;20202;-66
2024/01/07 02:32:35;;;;;;;0.93;0.67;;;;;;;;;;4968677;28;20680;-66
2024/01/07 02:35:02;;;;;;;0.67;0.67;;;;;;;;;;4968837;28;20312;-67
2024/01/07 02:37:29;;;;;;;0.70;0.70;;;;;;;;;;4968988;28;20212;-66
2024/01/07 02:39:56;;;;;;;0.50;0.50;;;;;;;;;;4968072;28;20696;-66
2024/01/07 02:42:25;;;;;;;0.40;0.40;;;;;;;;;;4968052;28;20221;-66
2024/01/07 02:44:52;;;;;;;0.70;0.70;;;;;;;;;;4968546;28;20221;-66
2024/01/07 02:47:19;;;;;;;0.57;0.50;;;;;;;;;;4968465;28;20225;-66
2024/01/07 02:49:46;;;;;;;0.93;0.47;;;;;;;;;;4966633;28;20206;-66
2024/01/07 02:52:13;;;;;;;0.80;0.80;;;;;;;;;;4968207;28;20225;-66
2024/01/07 02:54:40;;;;;;;0.40;0.40;;;;;;;;;;4968391;28;20643;-66
2024/01/07 02:57:07;;;;;;;0.87;0.70;;;;;;;;;;4968090;28;20234;-66
2024/01/07 02:59:35;;;;;;;0.80;0.30;;;;;;;;;;4968498;28;20217;-66
2024/01/07 03:02:02;;;;;;;0.87;0.87;;;;;;;;;;4967771;28;20233;-65
2024/01/07 03:04:29;;;;;;;1.00;0.97;;;;;;;;;;4968142;28;20217;-65
2024/01/07 03:06:56;;;;;;;0.90;0.90;;;;;;;;;;4968406;28;20443;-65
2024/01/07 03:09:23;;;;;;;0.80;0.80;;;;;;;;;;4968109;28;20218;-65
2024/01/07 03:11:50;;;;;;;0.53;0.33;;;;;;;;;;4968116;28;20697;-66
2024/01/07 03:14:20;;;;;;;0.80;0.80;;;;;;;;;;4967755;28;20202;-66
2024/01/07 03:16:48;;;;;;;0.60;0.60;;;;;;;;;;4968044;28;20581;-65
2024/01/07 03:19:15;;;;;;;0.60;0.60;;;;;;;;;;4967888;28;20673;-65
2024/01/07 03:21:42;;;;;;;1.43;0.87;;;;;;;;;;4967994;28;20233;-66
2024/01/07 03:24:09;;;;;;;1.00;0.90;;;;;;;;;;4967771;28;20245;-66
2024/01/07 03:26:37;;;;;;;0.93;0.93;;;;;;;;;;4968148;28;20206;-66
2024/01/07 03:29:04;;;;;;;0.93;0.80;;;;;;;;;;4967894;28;20211;-66
2024/01/07 03:31:31;;;;;;;0.90;0.90;;;;;;;;;;4967858;28;20241;-66
2024/01/07 03:33:59;;;;;;;0.70;0.70;;;;;;;;;;4967672;28;20210;-66
2024/01/07 03:36:26;;;;;;;1.10;1.10;;;;;;;;;;4968940;28;20234;-66
2024/01/07 03:38:53;;;;;;;0.73;0.73;;;;;;;;;;4971641;28;20214;-66
2024/01/07 03:41:21;;;;;;;1.00;1.00;;;;;;;;;;4971687;28;20673;-67
2024/01/07 03:43:48;;;;;;;0.90;0.90;;;;;;;;;;4971269;28;20557;-67
2024/01/07 03:46:16;;;;;;;1.27;1.17;;;;;;;;;;4971762;28;20207;-66
2024/01/07 03:48:43;;;;;;;1.33;1.30;;;;;;;;;;4969590;28;20211;-66
2024/01/07 03:51:11;;;;;;;1.27;1.07;;;;;;;;;;4971096;28;20210;-66
2024/01/07 03:53:38;;;;;;;0.80;0.80;;;;;;;;;;4971452;28;20301;-66
2024/01/07 03:56:05;;;;;;;1.30;1.20;;;;;;;;;;4971514;28;20252;-66
2024/01/07 03:58:33;;;;;;;1.50;1.40;;;;;;;;;;4971730;28;20214;-66
2024/01/07 04:01:00;;;;;;;1.07;1.07;;;;;;;;;;4971119;28;20245;-66
2024/01/07 04:03:27;;;;;;;1.00;1.00;;;;;;;;;;4971089;28;20217;-65
2024/01/07 04:05:54;;;;;;;4.10;1.57;;;;;;;;;;4970967;28;20684;-66
2024/01/07 04:08:22;;;;;;;1.63;1.53;;;;;;;;;;4971524;28;20218;-65
2024/01/07 04:10:50;;;;;;;1.50;1.40;;;;;;;;;;4971174;28;20209;-66
2024/01/07 04:13:17;;;;;;;0.83;0.83;;;;;;;;;;4970374;28;20203;-66
2024/01/07 04:15:44;;;;;;;0.83;0.83;;;;;;;;;;4970705;28;20242;-66
2024/01/07 04:18:11;;;;;;;1.73;1.60;;;;;;;;;;4968973;28;20225;-66
2024/01/07 04:20:38;;;;;;;0.87;0.87;;;;;;;;;;4971103;28;20690;-66
2024/01/07 04:23:05;;;;;;;1.43;1.33;;;;;;;;;;4970670;28;20217;-66
2024/01/07 04:25:34;;;;;;;1.47;1.47;;;;;;;;;;4970668;28;20261;-66
2024/01/07 04:28:01;;;;;;;2.00;1.80;;;;;;;;;;4970517;28;20323;-65
2024/01/07 04:30:28;;;;;;;1.67;1.57;;;;;;;;;;4970543;28;20221;-66
2024/01/07 04:32:55;;;;;;;1.53;1.43;;;;;;;;;;4970714;28;20217;-65
2024/01/07 04:35:22;;;;;;;1.67;1.57;;;;;;;;;;4970992;28;20218;-66
2024/01/07 04:37:49;;;;;;;1.40;1.40;;;;;;;;;;4970818;28;20214;-66
2024/01/07 04:40:16;;;;;;;1.07;1.07;;;;;;;;;;4969738;28;20230;-66
2024/01/07 04:42:45;;;;;;;1.63;1.53;;;;;;;;;;4968123;28;20597;-65
2024/01/07 04:45:12;;;;;;;2.00;1.87;;;;;;;;;;4966291;28;20267;-65
2024/01/07 04:47:39;;;;;;;2.13;2.03;;;;;;;;;;4968919;28;20299;-65
2024/01/07 04:50:06;;;;;;;1.10;1.03;;;;;;;;;;4970200;28;20287;-67
2024/01/07 04:52:33;;;;;;;1.90;1.23;;;;;;;;;;4969550;28;20213;-66
2024/01/07 04:55:00;;;;;;;1.47;1.37;;;;;;;;;;4984609;28;20213;-65
2024/01/07 04:57:27;;;;;;;1.50;1.40;;;;;;;;;;4975982;28;20229;-66
2024/01/07 04:59:56;;;;;;;2.40;1.97;;;;;;;;;;4989964;28;20221;-65
2024/01/07 05:02:23;;;;;;;1.80;1.70;;;;;;;;;;4982620;28;20207;-65
2024/01/07 05:04:50;;;;;;;0.90;0.90;;;;;;;;;;4969833;28;20207;-66
2024/01/07 05:07:17;;;;;;;1.23;1.13;;;;;;;;;;4969696;28;20206;-66
2024/01/07 05:09:44;;;;;;;1.23;1.23;;;;;;;;;;4970004;28;20561;-65
2024/01/07 05:12:11;;;;;;;1.60;1.50;;;;;;;;;;4970233;28;20238;-66
2024/01/07 05:14:38;;;;;;;1.73;1.60;;;;;;;;;;4966327;28;20210;-66
2024/01/07 05:17:06;;;;;;;1.27;1.20;;;;;;;;;;4969774;28;20230;-66
2024/01/07 05:19:33;;;;;;;1.30;1.30;;;;;;;;;;4969965;28;20222;-64
2024/01/07 05:22:00;;;;;;;1.30;1.20;;;;;;;;;;4969399;28;20232;-66
2024/01/07 05:24:28;;;;;;;2.33;2.13;;;;;;;;;;4968973;28;20246;-66
2024/01/07 05:26:55;;;;;;;2.53;2.03;;;;;;;;;;4969770;28;20217;-67
2024/01/07 05:29:22;;;;;;;3.07;2.83;;;;;;;;;;4969784;28;20218;-66
2024/01/07 05:31:49;;;;;;;3.43;2.10;;;;;;;;;;4968325;28;20233;-63
2024/01/07 05:34:17;;;;;;;1.67;1.67;;;;;;;;;;4969509;28;20210;-63
2024/01/07 05:36:44;;;;;;;1.50;1.40;;;;;;;;;;4969531;28;20222;-63
2024/01/07 05:39:11;;;;;;;1.67;1.60;;;;;;;;;;4969569;28;20218;-64
2024/01/07 05:41:39;;;;;;;3.50;1.47;;;;;;;;;;4969556;28;20217;-64
2024/01/07 05:44:08;;;;;;;1.60;1.50;;;;;;;;;;4969667;28;20248;-64
2024/01/07 05:46:35;;;;;;;3.67;3.17;;;;;;;;;;4968920;28;20214;-63
2024/01/07 05:49:02;;;;;;;4.53;2.27;;;;;;;;;;4969499;28;20237;-64
2024/01/07 05:51:30;;;;;;;2.77;2.17;;;;;;;;;;4969360;28;20303;-64
2024/01/07 05:53:58;;;;;;;2.80;2.60;;;;;;;;;;4969345;28;20218;-64
2024/01/07 05:56:25;;;;;;;2.57;2.10;;;;;;;;;;4967042;28;20452;-64
2024/01/07 05:58:52;;;;;;;3.63;3.10;;;;;;;;;;4968673;28;20222;-63
2024/01/07 06:01:20;;;;;;;4.00;3.53;;;;;;;;;;4969184;28;20206;-64
2024/01/07 06:03:47;;;;;;;2.00;1.33;;;;;;;;;;4947767;28;20771;-64
2024/01/07 06:06:14;;;;;;;4.77;3.80;;;;;;;;;;4953348;28;20700;-63
2024/01/07 06:08:43;;;;;;;5.50;3.90;;;;;;;;;;4969004;28;20739;-66
2024/01/07 06:11:10;;;;;;;6.33;3.00;;;;;;;;;;4968961;28;20688;-66
2024/01/07 06:13:37;;;;;;;3.40;2.63;;;;;;;;;;4968986;28;20206;-66
2024/01/07 06:16:05;;;;;;;5.67;2.83;;;;;;;;;;4968390;28;20214;-66
2024/01/07 06:18:32;;;;;;;6.57;3.07;;;;;;;;;;4968141;28;20246;-67
2024/01/07 06:20:59;;;;;;;4.37;3.33;;;;;;;;;;4968388;28;20230;-66
2024/01/07 06:23:26;;;;;;;7.00;4.93;;;;;;;;;;4984680;28;20210;-66
2024/01/07 06:25:54;;;;;;;5.67;4.07;;;;;;;;;;4970165;28;20218;-66
2024/01/07 06:28:21;;;;;;;3.30;3.07;;;;;;;;;;4965936;28;20210;-66
2024/01/07 06:30:48;;;;;;;4.80;3.37;;;;;;;;;;4969043;28;20220;-66
2024/01/07 06:33:15;;;;;;;7.07;4.73;;;;;;;;;;4968572;28;20225;-65
2024/01/07 06:35:42;;;;;;;3.00;2.77;;;;;;;;;;4967996;28;20215;-63
2024/01/07 06:38:09;;;;;;;4.27;3.87;;;;;;;;;;4972423;28;20230;-64
2024/01/07 06:40:36;;;;;;;3.60;3.07;;;;;;;;;;4979594;28;20206;-67
2024/01/07 06:43:05;;;;;;;2.13;2.00;;;;;;;;;;4966271;28;20217;-66
2024/01/07 06:45:33;;;;;;;1.90;1.77;;;;;;;;;;4966180;28;20218;-66
2024/01/07 06:48:00;;;;;;;6.10;3.63;;;;;;;;;;4968308;28;20440;-66
2024/01/07 06:50:27;;;;;;;3.43;3.23;;;;;;;;;;4967975;28;20296;-65
2024/01/07 06:52:54;;;;;;;2.20;2.00;;;;;;;;;;4967752;28;20202;-66
2024/01/07 06:55:23;;;;;;;2.07;1.87;;;;;;;;;;4963935;28;20210;-66
2024/01/07 06:57:50;;;;;;;2.70;1.50;;;;;;;;;;4964981;28;21006;-66
2024/01/07 07:00:19;;;;;;;2.57;2.33;;;;;;;;;;4966391;28;20210;-66
2024/01/07 07:02:46;;;;;;;1.40;1.40;;;;;;;;;;4964565;28;20216;-66
2024/01/07 07:05:13;;;;;;;1.90;1.77;;;;;;;;;;4966893;28;20224;-66
2024/01/07 07:07:40;;;;;;;2.63;1.80;;;;;;;;;;4967021;28;20237;-66
2024/01/07 07:10:07;;;;;;;2.87;2.67;;;;;;;;;;4968170;28;20217;-66
2024/01/07 07:12:34;;;;;;;1.00;1.00;;;;;;;;;;4971096;28;20230;-66
2024/01/07 07:15:01;;;;;;;1.93;1.67;;;;;;;;;;4966913;28;20587;-66
2024/01/07 07:17:29;;;;;;;1.90;1.80;;;;;;;;;;4970464;28;20232;-66
2024/01/07 07:19:56;;;;;;;2.00;1.67;;;;;;;;;;4972438;28;20220;-64
2024/01/07 07:22:23;;;;;;;2.10;2.00;;;;;;;;;;4970120;28;20712;-66
2024/01/07 07:24:50;;;;;;;3.27;1.87;;;;;;;;;;4971597;28;20245;-66
2024/01/07 07:27:18;;;;;;;5.77;3.00;;;;;;;;;;4970352;28;20238;-66
2024/01/07 07:29:45;;;;;;;2.97;2.67;;;;;;;;;;4970634;28;20303;-66
2024/01/07 07:32:12;;;;;;;2.17;2.07;;;;;;;;;;4970777;28;20223;-66
2024/01/07 07:34:40;;;;;;;2.30;2.07;;;;;;;;;;4970569;28;20663;-66
2024/01/07 07:37:07;;;;;;;2.97;2.57;;;;;;;;;;4971247;28;20226;-66
2024/01/07 07:39:34;;;;;;;4.67;3.60;;;;;;;;;;4971355;28;20216;-66
2024/01/07 07:42:01;;;;;;;3.40;3.10;;;;;;;;;;4971354;28;20206;-66
2024/01/07 07:44:28;;;;;;;2.83;1.53;;;;;;;;;;4971283;28;20213;-66
2024/01/07 07:46:55;;;;;;;5.20;4.00;;;;;;;;;;4971223;28;20205;-63
2024/01/07 07:49:22;;;;;;;2.47;1.80;;;;;;;;;;4971272;28;20677;-64
2024/01/07 07:51:51;;;;;;;3.43;2.33;;;;;;;;;;4969450;28;20210;-65
2024/01/07 07:54:18;;;;;;;4.17;3.77;;;;;;;;;;4970977;28;20249;-64
2024/01/07 07:56:45;;;;;;;5.67;4.00;;;;;;;;;;4970718;28;20209;-64
2024/01/07 07:59:12;;;;;;;5.20;3.63;;;;;;;;;;4970987;28;20907;-65
2024/01/07 08:01:39;;;;;;;4.43;2.73;;;;;;;;;;4968971;28;20556;-64
2024/01/07 08:04:07;;;;;;;3.10;2.87;;;;;;;;;;4967538;28;20227;-65
2024/01/07 08:06:34;;;;;;;6.70;4.33;;;;;;;;;;4971176;28;20211;-64
2024/01/07 08:09:03;;;;;;;4.43;2.87;;;;;;;;;;4970655;28;20223;-64
2024/01/07 08:11:30;;;;;;;5.87;4.57;;;;;;;;;;4970791;28;20266;-64
2024/01/07 08:13:57;;;;;;;3.40;2.63;;;;;;;;;;4971145;28;20270;-64
2024/01/07 08:16:24;;;;;;;3.57;2.70;;;;;;;;;;4968939;28;20245;-65
2024/01/07 08:18:51;;;;;;;3.80;3.27;;;;;;;;;;4970678;28;20230;-66
2024/01/07 08:21:20;;;;;;;3.50;3.20;;;;;;;;;;4970163;28;20230;-67
2024/01/07 08:23:47;;;;;;;1.87;1.77;;;;;;;;;;4970300;28;20245;-64
2024/01/07 08:26:19;;;;;;;2.10;2.00;;;;;;;;;;4970379;28;20213;-66
2024/01/07 08:28:46;;;;;;;5.77;4.00;;;;;;;;;;4970441;28;20688;-66
2024/01/07 08:31:13;;;;;;;3.87;2.87;;;;;;;;;;4970493;28;20207;-64
2024/01/07 08:33:40;;;;;;;8.00;5.07;;;;;;;;;;4970617;28;20214;-65
2024/01/07 08:36:07;;;;;;;2.50;2.17;;;;;;;;;;4970291;28;20213;-65
2024/01/07 08:38:35;;;;;;;3.03;1.47;;;;;;;;;;4969171;28;20238;-65
2024/01/07 08:41:02;;;;;;;3.70;2.43;;;;;;;;;;4970020;28;20203;-64
2024/01/07 08:43:30;;;;;;;4.40;3.17;;;;;;;;;;4970714;28;20206;-64
2024/01/07 08:45:57;;;;;;;4.67;3.40;;;;;;;;;;4969629;28;20214;-64
2024/01/07 08:48:24;;;;;;;6.17;4.27;;;;;;;;;;4969486;28;20217;-64
2024/01/07 08:50:51;;;;;;;4.13;2.73;;;;;;;;;;4969767;28;20810;-65
2024/01/07 08:53:20;;;;;;;5.43;2.97;;;;;;;;;;4969717;28;20207;-65
2024/01/07 08:55:47;;;;;;;4.50;2.73;;;;;;;;;;4967370;28;20206;-64
2024/01/07 08:58:15;;;;;;;3.77;2.63;;;;;;;;;;4970082;28;20237;-65
2024/01/07 09:00:43;;;;;;;3.53;3.13;;;;;;;;;;4965850;28;20336;-66
2024/01/07 09:03:10;;;;;;;5.20;3.93;;;;;;;;;;4967131;28;20680;-65
2024/01/07 09:05:37;;;;;;;9.93;5.13;;;;;;;;;;4981467;28;20209;-64
2024/01/07 09:08:06;;;;;;;7.07;4.13;;;;;;;;;;4974511;28;20912;-64
2024/01/07 09:10:33;;;;;;;2.77;2.57;;;;;;;;;;4968867;28;20219;-64
2024/01/07 09:13:00;;;;;;;7.90;3.27;;;;;;;;;;4964686;28;20274;-65
2024/01/07 09:15:27;;;;;;;2.27;2.07;;;;;;;;;;4963452;28;20223;-65
2024/01/07 09:17:55;;;;;;;7.17;3.90;;;;;;;;;;4969405;28;20245;-65
2024/01/07 09:20:22;;;;;;;5.03;3.67;;;;;;;;;;4968482;28;20221;-65
2024/01/07 09:22:49;;;;;;;2.53;1.70;;;;;;;;;;4969609;28;20234;-66
2024/01/07 09:25:17;;;;;;;4.40;3.10;;;;;;;;;;4968388;28;20752;-65
2024/01/07 09:27:44;;;;;;;3.57;3.27;;;;;;;;;;4969831;28;20227;-65
2024/01/07 09:30:14;;;;;;;2.67;2.20;;;;;;;;;;4969260;28;20320;-64
2024/01/07 09:32:41;;;;;;;5.67;3.00;;;;;;;;;;4969091;28;20451;-66
2024/01/07 09:35:10;;;;;;;5.73;4.17;;;;;;;;;;4971355;28;20207;-64
2024/01/07 09:37:37;;;;;;;9.03;3.43;;;;;;;;;;4973483;28;20222;-65
2024/01/07 09:40:05;;;;;;;6.53;2.67;;;;;;;;;;4968482;28;20583;-67
2024/01/07 09:42:33;;;;;;;7.57;4.00;;;;;;;;;;4950051;28;20242;-66
2024/01/07 09:45:03;;;;;;;4.23;2.73;;;;;;;;;;4965749;28;20218;-63
2024/01/07 09:47:30;;;;;;;7.13;3.43;;;;;;;;;;4968739;28;20199;-65
2024/01/07 09:49:58;;;;;;;3.10;2.70;;;;;;;;;;4968933;28;20202;-73
2024/01/07 09:52:26;;;;;;;3.77;2.73;;;;;;;;;;4964853;28;20229;-65
2024/01/07 09:54:58;;;;;;;9.13;2.70;;;;;;;;;;4968267;28;20206;-64
2024/01/07 09:57:25;;;;;;;2.63;2.40;;;;;;;;;;4971948;28;20211;-64
2024/01/07 09:59:53;;;;;;;3.93;3.33;;;;;;;;;;4966564;28;20210;-64
2024/01/07 10:02:20;;;;;;;4.27;2.63;;;;;;;;;;4968396;28;20205;-64
2024/01/07 10:04:48;;;;;;;4.33;2.77;;;;;;;;;;4968352;28;20565;-64
2024/01/07 10:07:15;;;;;;;6.03;3.07;;;;;;;;;;4967992;28;20211;-70
2024/01/07 10:09:43;;;;;;;8.30;4.77;;;;;;;;;;4967659;28;20283;-62
2024/01/07 10:12:12;;;;;;;6.37;4.60;;;;;;;;;;4968166;28;20225;-68
2024/01/07 10:14:40;;;;;;;2.30;2.17;;;;;;;;;;4968487;28;20301;-66
2024/01/07 10:17:16;;;;;;;4.37;3.20;;;;;;;;;;4967586;28;20230;-68
2024/01/07 10:19:44;;;;;;;6.80;4.40;;;;;;;;;;4955185;28;20206;-69
2024/01/07 10:22:13;;;;;;;6.87;4.43;;;;;;;;;;4967649;28;20242;-67
2024/01/07 10:24:41;;;;;;;3.53;3.23;;;;;;;;;;4968498;28;20238;-65
2024/01/07 10:27:09;;;;;;;2.70;2.10;;;;;;;;;;4968184;28;20298;-65
2024/01/07 10:29:36;;;;;;;3.73;2.63;;;;;;;;;;4968645;28;20210;-65
2024/01/07 10:32:04;;;;;;;2.00;1.90;;;;;;;;;;4968278;28;20218;-65
2024/01/07 10:34:32;;;;;;;3.93;2.37;;;;;;;;;;4968504;28;20268;-68
2024/01/07 10:37:00;;;;;;;3.20;2.97;;;;;;;;;;4966246;28;20210;-64
2024/01/07 10:39:28;;;;;;;2.47;2.23;;;;;;;;;;4965702;28;20228;-65
2024/01/07 10:41:57;;;;;;;2.53;1.87;;;;;;;;;;4967933;28;20250;-64
2024/01/07 10:44:26;;;;;;;1.87;1.77;;;;;;;;;;4963501;28;20217;-65
2024/01/07 10:46:55;;;;;;;2.80;2.60;;;;;;;;;;4965276;28;20214;-64
2024/01/07 10:49:22;;;;;;;1.63;1.60;;;;;;;;;;4967789;28;20217;-64
2024/01/07 10:51:52;;;;;;;4.07;3.40;;;;;;;;;;4967936;28;20259;-64
2024/01/07 10:54:20;;;;;;;2.00;1.90;;;;;;;;;;4967041;28;20214;-65
2024/01/07 10:56:50;;;;;;;3.83;3.47;;;;;;;;;;4966825;28;20696;-64
2024/01/07 10:59:18;;;;;;;3.20;2.90;;;;;;;;;;4967665;28;20226;-64
2024/01/07 11:01:46;;;;;;;2.50;2.33;;;;;;;;;;4967759;28;20222;-64
2024/01/07 11:04:16;;;;;;;2.90;2.67;;;;;;;;;;4967589;28;20214;-65
2024/01/07 11:06:48;;;;;;;2.10;2.00;;;;;;;;;;4952439;28;20242;-65
2024/01/07 11:09:19;;;;;;;3.37;2.60;;;;;;;;;;4948552;29;20217;-65
2024/01/07 11:11:46;;;;;;;4.17;3.23;;;;;;;;;;4964091;28;20206;-64
2024/01/07 11:14:31;;;;;;;2.43;2.23;;;;;;;;;;4967239;28;20214;-64
2024/01/07 11:17:00;;;;;;;2.00;1.90;;;;;;;;;;4967601;28;20213;-65
2024/01/07 11:19:27;;;;;;;2.83;2.63;;;;;;;;;;4967239;28;20234;-64
2024/01/07 11:21:54;;;;;;;3.57;2.43;;;;;;;;;;4964616;28;20234;-64
2024/01/07 11:24:40;;;;;;;4.53;2.90;;;;;;;;;;4964802;28;20242;-64
2024/01/07 11:27:09;;;;;;;1.43;1.43;;;;;;;;;;4964723;28;20702;-64
2024/01/07 11:29:36;;;;;;;1.83;1.80;;;;;;;;;;4967180;28;20210;-65
2024/01/07 11:32:07;;;;;;;2.87;2.23;;;;;;;;;;4966744;28;20210;-65
2024/01/07 11:34:40;;;;;;;3.27;2.20;;;;;;;;;;4967396;28;20217;-64
2024/01/07 11:37:09;;;;;;;2.60;1.97;;;;;;;;;;4966359;28;20203;-64
2024/01/07 11:39:36;;;;;;;3.43;2.10;;;;;;;;;;4967470;28;20257;-64
2024/01/07 11:42:03;;;;;;;2.17;2.07;;;;;;;;;;4967494;28;20856;-64
2024/01/07 11:44:31;;;;;;;7.63;2.13;;;;;;;;;;4967134;28;20210;-65
2024/01/07 11:46:58;;;;;;;1.87;1.33;;;;;;;;;;4966289;28;20536;-65
2024/01/07 11:49:26;;;;;;;4.87;3.63;;;;;;;;;;4965751;28;20213;-65
2024/01/07 11:51:53;;;;;;;3.73;2.97;;;;;;;;;;4966734;28;20325;-65
2024/01/07 11:54:20;;;;;;;4.90;3.20;;;;;;;;;;4966147;28;20214;-65
2024/01/07 11:56:47;;;;;;;4.97;2.93;;;;;;;;;;4967197;28;20210;-65
2024/01/07 11:59:14;;;;;;;2.40;2.20;;;;;;;;;;4967916;28;20344;-66
2024/01/07 12:01:41;;;;;;;6.10;3.97;;;;;;;;;;4970279;28;20665;-65
2024/01/07 12:04:18;;;;;;;3.63;3.33;;;;;;;;;;4971093;28;20214;-62
2024/01/07 12:06:47;;;;;;;3.53;3.23;;;;;;;;;;4970846;28;20214;-64
2024/01/07 12:09:14;;;;;;;4.40;2.07;;;;;;;;;;4971044;28;20234;-63
2024/01/07 12:11:41;;;;;;;2.80;2.40;;;;;;;;;;4962065;28;20345;-68
2024/01/07 12:14:09;;;;;;;4.10;2.60;;;;;;;;;;4970615;28;20234;-61
2024/01/07 12:16:36;;;;;;;3.77;3.10;;;;;;;;;;4969599;28;20285;-63
2024/01/07 12:19:03;;;;;;;6.27;2.50;;;;;;;;;;4970507;28;20238;-63
2024/01/07 12:21:30;;;;;;;2.37;2.27;;;;;;;;;;4970513;28;20237;-62
2024/01/07 12:23:59;;;;;;;1.53;1.53;;;;;;;;;;4970327;28;20253;-61
2024/01/07 12:26:27;;;;;;;2.53;2.30;;;;;;;;;;4967672;28;20221;-64
2024/01/07 12:28:55;;;;;;;2.83;2.37;;;;;;;;;;4969870;28;20704;-62
2024/01/07 12:31:22;;;;;;;4.00;2.97;;;;;;;;;;4970029;28;20225;-60
2024/01/07 12:33:49;;;;;;;3.77;3.40;;;;;;;;;;4970066;28;20632;-62
2024/01/07 12:36:16;;;;;;;4.37;3.30;;;;;;;;;;4968893;28;20214;-65
2024/01/07 12:38:43;;;;;;;1.67;1.57;;;;;;;;;;4966279;28;20229;-65
2024/01/07 12:41:11;;;;;;;3.90;1.77;;;;;;;;;;4970149;28;20207;-61
2024/01/07 12:43:38;;;;;;;2.50;2.30;;;;;;;;;;4970300;28;20213;-63
2024/01/07 12:46:05;;;;;;;2.50;2.20;;;;;;;;;;4967689;28;20214;-62
2024/01/07 12:48:32;;;;;;;4.03;2.80;;;;;;;;;;4969816;28;20203;-61
2024/01/07 12:50:59;;;;;;;2.57;2.37;;;;;;;;;;4969964;28;20216;-65
2024/01/07 12:53:27;;;;;;;3.13;2.63;;;;;;;;;;4981123;28;20205;-68
2024/01/07 12:55:54;;;;;;;5.27;2.13;;;;;;;;;;4971234;28;20214;-65
2024/01/07 12:58:22;;;;;;;4.07;2.70;;;;;;;;;;4968977;28;20598;-65
2024/01/07 13:00:49;;;;;;;3.70;2.43;;;;;;;;;;4968896;28;20230;-66
2024/01/07 13:03:18;;;;;;;3.10;2.47;;;;;;;;;;4969469;28;20668;-68
2024/01/07 13:05:45;;;;;;;2.53;2.33;;;;;;;;;;4969394;28;20214;-69
2024/01/07 13:08:13;;;;;;;4.90;3.33;;;;;;;;;;4965016;28;20210;-64
2024/01/07 13:10:40;;;;;;;4.30;2.37;;;;;;;;;;4966902;28;20297;-65
2024/01/07 13:13:09;;;;;;;4.70;2.63;;;;;;;;;;4969498;28;20241;-64
2024/01/07 13:15:38;;;;;;;2.97;2.17;;;;;;;;;;4968602;28;20207;-64
2024/01/07 13:18:05;;;;;;;5.47;3.00;;;;;;;;;;4968808;28;20207;-65
2024/01/07 13:20:32;;;;;;;7.03;2.97;;;;;;;;;;4969142;28;20598;-65
2024/01/07 13:23:01;;;;;;;5.90;2.33;;;;;;;;;;4968571;28;20787;-64
2024/01/07 13:25:28;;;;;;;3.67;2.40;;;;;;;;;;4969076;28;20243;-64
2024/01/07 13:27:55;;;;;;;3.50;1.90;;;;;;;;;;4969703;28;20213;-64
2024/01/07 13:30:22;;;;;;;1.90;1.70;;;;;;;;;;4969386;28;20214;-64
2024/01/07 13:32:51;;;;;;;1.70;1.57;;;;;;;;;;4969290;28;20217;-65
2024/01/07 13:35:18;;;;;;;3.13;2.43;;;;;;;;;;4969140;28;20225;-65
2024/01/07 13:37:47;;;;;;;5.03;3.10;;;;;;;;;;4966864;28;20218;-64
2024/01/07 13:40:14;;;;;;;2.10;1.97;;;;;;;;;;4968033;28;20233;-64
2024/01/07 13:42:41;;;;;;;1.13;1.10;;;;;;;;;;4968964;28;20675;-64
2024/01/07 13:45:08;;;;;;;3.50;2.03;;;;;;;;;;4968730;28;20210;-64
2024/01/07 13:47:36;;;;;;;1.70;1.57;;;;;;;;;;4966723;28;20229;-64
2024/01/07 13:50:04;;;;;;;1.83;1.40;;;;;;;;;;4967377;28;20249;-64
2024/01/07 13:52:31;;;;;;;2.80;2.27;;;;;;;;;;4969176;28;20253;-65
2024/01/07 13:54:58;;;;;;;2.33;2.20;;;;;;;;;;4968658;28;20220;-64
2024/01/07 13:57:25;;;;;;;1.63;1.53;;;;;;;;;;4968724;28;20432;-63
2024/01/07 13:59:52;;;;;;;2.70;2.50;;;;;;;;;;4968414;28;20234;-63
2024/01/07 14:02:19;;;;;;;3.10;2.17;;;;;;;;;;4968329;28;20210;-64
2024/01/07 14:04:48;;;;;;;2.27;1.83;;;;;;;;;;4968532;28;20210;-64
2024/01/07 14:07:16;;;;;;;2.40;2.23;;;;;;;;;;4967847;28;20232;-64
2024/01/07 14:09:43;;;;;;;2.00;1.90;;;;;;;;;;4968228;28;20239;-63
2024/01/07 14:12:10;;;;;;;1.57;1.17;;;;;;;;;;4964369;28;20222;-64
2024/01/07 14:14:37;;;;;;;3.37;1.53;;;;;;;;;;4959318;28;20612;-64
2024/01/07 14:17:04;;;;;;;1.87;1.53;;;;;;;;;;4968028;28;20217;-63
2024/01/07 14:19:31;;;;;;;2.43;2.23;;;;;;;;;;4967143;28;20712;-64
2024/01/07 14:21:59;;;;;;;2.77;2.40;;;;;;;;;;4967399;28;20233;-64
2024/01/07 14:24:27;;;;;;;4.67;1.20;;;;;;;;;;4967407;28;20242;-63
2024/01/07 14:26:54;;;;;;;2.20;1.90;;;;;;;;;;4968421;28;20688;-63
2024/01/07 14:29:21;;;;;;;1.37;1.30;;;;;;;;;;4968572;28;20217;-63
2024/01/07 14:31:49;;;;;;;3.37;1.40;;;;;;;;;;4968028;28;20214;-64
2024/01/07 14:34:15;;;;;;;1.97;1.87;;;;;;;;;;4968086;28;20309;-63
2024/01/07 14:36:43;;;;;;;1.33;0.90;;;;;;;;;;4967740;28;20213;-64
2024/01/07 14:39:10;;;;;;;1.77;1.67;;;;;;;;;;4968114;28;20323;-63
2024/01/07 14:41:39;;;;;;;1.50;1.40;;;;;;;;;;4968198;28;20296;-64
2024/01/07 14:44:06;;;;;;;1.87;1.77;;;;;;;;;;4967992;28;20238;-63